sensor_id;sensor_type;location;lat;lon;timestamp;temperature;humidity
20242;DHT22;10279;46.388;8.116;2023-10-13T00:02:02;15.20;94.00
20242;DHT22;10279;46.388;8.116;2023-10-13T00:04:33;15.20;94.20
20242;DHT22;10279;46.388;8.116;2023-10-13T00:07:03;15.20;94.40
20242;DHT22;10279;46.388;8.116;2023-10-13T00:09:31;15.20;94.50
20242;DHT22;10279;46.388;8.116;2023-10-13T00:12:06;15.30;94.50
20242;DHT22;10279;46.388;8.116;2023-10-13T00:14:41;15.30;94.40
20242;DHT22;10279;46.388;8.116;2023-10-13T00:17:09;15.30;94.40
20242;DHT22;10279;46.388;8.116;2023-10-13T00:19:47;15.20;94.30
20242;DHT22;10279;46.388;8.116;2023-10-13T00:22:19;15.20;94.10
20242;DHT22;10279;46.388;8.116;2023-10-13T00:24:50;15.20;94.00
20242;DHT22;10279;46.388;8.116;2023-10-13T00:27:26;15.30;94.10
20242;DHT22;10279;46.388;8.116;2023-10-13T00:29:59;15.20;94.20
20242;DHT22;10279;46.388;8.116;2023-10-13T00:32:46;15.20;94.30
20242;DHT22;10279;46.388;8.116;2023-10-13T00:35:18;15.20;94.20
20242;DHT22;10279;46.388;8.116;2023-10-13T00:37:52;15.20;94.20
20242;DHT22;10279;46.388;8.116;2023-10-13T00:40:21;15.20;94.30
20242;DHT22;10279;46.388;8.116;2023-10-13T00:43:01;15.20;94.30
20242;DHT22;10279;46.388;8.116;2023-10-13T00:45:57;15.20;94.40
20242;DHT22;10279;46.388;8.116;2023-10-13T00:48:32;15.10;94.40
20242;DHT22;10279;46.388;8.116;2023-10-13T00:51:11;15.10;94.30
20242;DHT22;10279;46.388;8.116;2023-10-13T00:53:57;15.00;94.10
20242;DHT22;10279;46.388;8.116;2023-10-13T00:56:26;15.00;94.10
20242;DHT22;10279;46.388;8.116;2023-10-13T00:59:00;15.00;94.20
20242;DHT22;10279;46.388;8.116;2023-10-13T01:01:30;15.00;94.30
20242;DHT22;10279;46.388;8.116;2023-10-13T01:04:00;15.00;94.50
20242;DHT22;10279;46.388;8.116;2023-10-13T01:06:35;15.10;94.50
20242;DHT22;10279;46.388;8.116;2023-10-13T01:09:06;15.10;94.60
20242;DHT22;10279;46.388;8.116;2023-10-13T01:11:47;15.00;94.60
20242;DHT22;10279;46.388;8.116;2023-10-13T01:14:20;14.90;94.50
20242;DHT22;10279;46.388;8.116;2023-10-13T01:16:48;14.80;94.60
20242;DHT22;10279;46.388;8.116;2023-10-13T01:19:20;14.80;94.60
20242;DHT22;10279;46.388;8.116;2023-10-13T01:21:52;14.90;94.70
20242;DHT22;10279;46.388;8.116;2023-10-13T01:24:38;14.80;94.70
20242;DHT22;10279;46.388;8.116;2023-10-13T01:27:07;14.80;94.80
20242;DHT22;10279;46.388;8.116;2023-10-13T01:29:52;14.70;94.80
20242;DHT22;10279;46.388;8.116;2023-10-13T01:32:36;14.70;94.70
20242;DHT22;10279;46.388;8.116;2023-10-13T01:35:12;14.70;94.60
20242;DHT22;10279;46.388;8.116;2023-10-13T01:37:39;14.70;94.50
20242;DHT22;10279;46.388;8.116;2023-10-13T01:40:07;14.70;94.50
20242;DHT22;10279;46.388;8.116;2023-10-13T01:42:34;14.60;94.60
20242;DHT22;10279;46.388;8.116;2023-10-13T01:45:04;14.60;94.60
20242;DHT22;10279;46.388;8.116;2023-10-13T01:47:34;14.60;94.60
20242;DHT22;10279;46.388;8.116;2023-10-13T01:50:02;14.70;94.70
20242;DHT22;10279;46.388;8.116;2023-10-13T01:52:56;14.70;94.70
20242;DHT22;10279;46.388;8.116;2023-10-13T01:55:40;14.70;94.80
20242;DHT22;10279;46.388;8.116;2023-10-13T01:58:14;14.60;94.70
20242;DHT22;10279;46.388;8.116;2023-10-13T02:00:44;14.60;94.80
20242;DHT22;10279;46.388;8.116;2023-10-13T02:03:12;14.60;94.90
20242;DHT22;10279;46.388;8.116;2023-10-13T02:05:48;14.60;95.00
20242;DHT22;10279;46.388;8.116;2023-10-13T02:08:20;14.60;94.90
20242;DHT22;10279;46.388;8.116;2023-10-13T02:10:55;14.60;95.00
20242;DHT22;10279;46.388;8.116;2023-10-13T02:13:24;14.50;94.80
20242;DHT22;10279;46.388;8.116;2023-10-13T02:15:57;14.50;94.90
20242;DHT22;10279;46.388;8.116;2023-10-13T02:18:25;14.40;94.80
20242;DHT22;10279;46.388;8.116;2023-10-13T02:21:03;14.40;95.00
20242;DHT22;10279;46.388;8.116;2023-10-13T02:23:40;14.40;95.10
20242;DHT22;10279;46.388;8.116;2023-10-13T02:26:29;14.30;95.10
20242;DHT22;10279;46.388;8.116;2023-10-13T02:29:00;14.30;95.30
20242;DHT22;10279;46.388;8.116;2023-10-13T02:31:38;14.20;95.20
20242;DHT22;10279;46.388;8.116;2023-10-13T02:34:06;14.30;95.00
20242;DHT22;10279;46.388;8.116;2023-10-13T02:36:39;14.20;95.10
20242;DHT22;10279;46.388;8.116;2023-10-13T02:39:16;14.20;95.10
20242;DHT22;10279;46.388;8.116;2023-10-13T02:41:44;14.10;95.20
20242;DHT22;10279;46.388;8.116;2023-10-13T02:44:15;14.10;95.40
20242;DHT22;10279;46.388;8.116;2023-10-13T02:46:54;14.20;95.10
20242;DHT22;10279;46.388;8.116;2023-10-13T02:49:27;14.30;95.00
20242;DHT22;10279;46.388;8.116;2023-10-13T02:51:58;14.20;94.90
20242;DHT22;10279;46.388;8.116;2023-10-13T02:54:37;14.20;95.10
20242;DHT22;10279;46.388;8.116;2023-10-13T02:57:09;14.20;95.00
20242;DHT22;10279;46.388;8.116;2023-10-13T02:59:37;14.20;94.90
20242;DHT22;10279;46.388;8.116;2023-10-13T03:02:08;14.20;94.90
20242;DHT22;10279;46.388;8.116;2023-10-13T03:04:52;14.10;95.00
20242;DHT22;10279;46.388;8.116;2023-10-13T03:07:40;14.00;95.10
20242;DHT22;10279;46.388;8.116;2023-10-13T03:10:11;14.00;95.30
20242;DHT22;10279;46.388;8.116;2023-10-13T03:12:41;14.00;95.40
20242;DHT22;10279;46.388;8.116;2023-10-13T03:15:09;14.00;95.50
20242;DHT22;10279;46.388;8.116;2023-10-13T03:17:40;13.90;95.40
20242;DHT22;10279;46.388;8.116;2023-10-13T03:20:15;13.90;95.50
20242;DHT22;10279;46.388;8.116;2023-10-13T03:22:43;14.00;95.50
20242;DHT22;10279;46.388;8.116;2023-10-13T03:25:14;14.00;95.50
20242;DHT22;10279;46.388;8.116;2023-10-13T03:28:11;13.90;95.40
20242;DHT22;10279;46.388;8.116;2023-10-13T03:30:44;13.80;95.30
20242;DHT22;10279;46.388;8.116;2023-10-13T03:33:11;13.80;95.70
20242;DHT22;10279;46.388;8.116;2023-10-13T03:35:41;13.80;95.20
20242;DHT22;10279;46.388;8.116;2023-10-13T03:38:10;13.80;95.10
20242;DHT22;10279;46.388;8.116;2023-10-13T03:40:51;13.80;95.20
20242;DHT22;10279;46.388;8.116;2023-10-13T03:43:45;13.80;95.30
20242;DHT22;10279;46.388;8.116;2023-10-13T03:46:13;13.80;95.30
20242;DHT22;10279;46.388;8.116;2023-10-13T03:48:40;13.80;95.30
20242;DHT22;10279;46.388;8.116;2023-10-13T03:51:19;13.90;95.40
20242;DHT22;10279;46.388;8.116;2023-10-13T03:53:46;13.80;95.20
20242;DHT22;10279;46.388;8.116;2023-10-13T03:56:22;13.80;95.10
20242;DHT22;10279;46.388;8.116;2023-10-13T03:58:59;13.80;95.20
20242;DHT22;10279;46.388;8.116;2023-10-13T04:01:33;13.70;95.20
20242;DHT22;10279;46.388;8.116;2023-10-13T04:04:14;13.80;95.30
20242;DHT22;10279;46.388;8.116;2023-10-13T04:07:04;13.80;95.40
20242;DHT22;10279;46.388;8.116;2023-10-13T04:09:32;13.80;95.40
20242;DHT22;10279;46.388;8.116;2023-10-13T04:12:07;13.80;95.30
20242;DHT22;10279;46.388;8.116;2023-10-13T04:14:42;13.80;95.40
20242;DHT22;10279;46.388;8.116;2023-10-13T04:17:12;13.80;95.30
20242;DHT22;10279;46.388;8.116;2023-10-13T04:19:44;13.70;95.40
20242;DHT22;10279;46.388;8.116;2023-10-13T04:22:35;13.70;95.20
20242;DHT22;10279;46.388;8.116;2023-10-13T04:25:27;13.80;95.10
20242;DHT22;10279;46.388;8.116;2023-10-13T04:28:12;13.80;95.00
20242;DHT22;10279;46.388;8.116;2023-10-13T04:30:45;13.80;95.00
20242;DHT22;10279;46.388;8.116;2023-10-13T04:33:26;13.70;95.00
20242;DHT22;10279;46.388;8.116;2023-10-13T04:36:07;13.70;95.10
20242;DHT22;10279;46.388;8.116;2023-10-13T04:39:03;13.70;95.50
20242;DHT22;10279;46.388;8.116;2023-10-13T04:41:32;13.70;95.30
20242;DHT22;10279;46.388;8.116;2023-10-13T04:44:16;13.80;95.20
20242;DHT22;10279;46.388;8.116;2023-10-13T04:47:02;13.70;95.00
20242;DHT22;10279;46.388;8.116;2023-10-13T04:49:35;13.80;95.10
20242;DHT22;10279;46.388;8.116;2023-10-13T04:52:18;13.70;95.20
20242;DHT22;10279;46.388;8.116;2023-10-13T04:55:05;13.70;95.20
20242;DHT22;10279;46.388;8.116;2023-10-13T04:57:59;13.70;95.20
20242;DHT22;10279;46.388;8.116;2023-10-13T05:00:49;13.60;95.40
20242;DHT22;10279;46.388;8.116;2023-10-13T05:03:39;13.60;95.40
20242;DHT22;10279;46.388;8.116;2023-10-13T05:06:25;13.60;95.20
20242;DHT22;10279;46.388;8.116;2023-10-13T05:09:13;13.50;95.30
20242;DHT22;10279;46.388;8.116;2023-10-13T05:12:00;13.50;95.40
20242;DHT22;10279;46.388;8.116;2023-10-13T05:14:45;13.50;95.40
20242;DHT22;10279;46.388;8.116;2023-10-13T05:17:32;13.50;95.30
20242;DHT22;10279;46.388;8.116;2023-10-13T05:20:17;13.50;95.30
20242;DHT22;10279;46.388;8.116;2023-10-13T05:23:03;13.50;95.40
20242;DHT22;10279;46.388;8.116;2023-10-13T05:25:49;13.50;95.50
20242;DHT22;10279;46.388;8.116;2023-10-13T05:28:35;13.50;95.40
20242;DHT22;10279;46.388;8.116;2023-10-13T05:31:21;13.50;95.30
20242;DHT22;10279;46.388;8.116;2023-10-13T05:34:07;13.50;95.30
20242;DHT22;10279;46.388;8.116;2023-10-13T05:36:53;13.40;95.10
20242;DHT22;10279;46.388;8.116;2023-10-13T05:39:39;13.30;95.40
20242;DHT22;10279;46.388;8.116;2023-10-13T05:42:24;13.30;95.30
20242;DHT22;10279;46.388;8.116;2023-10-13T05:45:10;13.30;95.40
20242;DHT22;10279;46.388;8.116;2023-10-13T05:47:52;13.30;95.40
20242;DHT22;10279;46.388;8.116;2023-10-13T05:50:39;13.20;95.60
20242;DHT22;10279;46.388;8.116;2023-10-13T05:53:25;13.20;95.40
20242;DHT22;10279;46.388;8.116;2023-10-13T05:56:11;13.30;95.40
20242;DHT22;10279;46.388;8.116;2023-10-13T05:58:57;13.30;95.30
20242;DHT22;10279;46.388;8.116;2023-10-13T06:01:43;13.30;95.50
20242;DHT22;10279;46.388;8.116;2023-10-13T06:04:29;13.30;95.50
20242;DHT22;10279;46.388;8.116;2023-10-13T06:07:16;13.40;95.60
20242;DHT22;10279;46.388;8.116;2023-10-13T06:10:02;13.40;95.60
20242;DHT22;10279;46.388;8.116;2023-10-13T06:12:48;13.30;95.50
20242;DHT22;10279;46.388;8.116;2023-10-13T06:15:37;13.20;95.50
20242;DHT22;10279;46.388;8.116;2023-10-13T06:18:23;13.20;95.60
20242;DHT22;10279;46.388;8.116;2023-10-13T06:21:09;13.30;95.50
20242;DHT22;10279;46.388;8.116;2023-10-13T06:23:55;13.30;95.50
20242;DHT22;10279;46.388;8.116;2023-10-13T06:26:41;13.30;95.40
20242;DHT22;10279;46.388;8.116;2023-10-13T06:29:27;13.30;95.30
20242;DHT22;10279;46.388;8.116;2023-10-13T06:31:54;13.30;95.40
20242;DHT22;10279;46.388;8.116;2023-10-13T06:34:25;13.30;95.60
20242;DHT22;10279;46.388;8.116;2023-10-13T06:37:05;13.30;95.50
20242;DHT22;10279;46.388;8.116;2023-10-13T06:40:03;13.40;95.50
20242;DHT22;10279;46.388;8.116;2023-10-13T06:42:54;13.30;95.30
20242;DHT22;10279;46.388;8.116;2023-10-13T06:45:43;13.20;95.30
20242;DHT22;10279;46.388;8.116;2023-10-13T06:48:17;13.30;95.20
20242;DHT22;10279;46.388;8.116;2023-10-13T06:50:50;13.30;95.00
20242;DHT22;10279;46.388;8.116;2023-10-13T06:53:19;13.30;95.00
20242;DHT22;10279;46.388;8.116;2023-10-13T06:55:46;13.30;95.00
20242;DHT22;10279;46.388;8.116;2023-10-13T06:58:15;13.30;95.10
20242;DHT22;10279;46.388;8.116;2023-10-13T07:00:44;13.40;95.20
20242;DHT22;10279;46.388;8.116;2023-10-13T07:03:24;13.40;95.40
20242;DHT22;10279;46.388;8.116;2023-10-13T07:05:52;13.50;95.10
20242;DHT22;10279;46.388;8.116;2023-10-13T07:08:21;13.50;95.00
20242;DHT22;10279;46.388;8.116;2023-10-13T07:13:25;13.50;95.00
20242;DHT22;10279;46.388;8.116;2023-10-13T07:15:55;13.60;94.90
20242;DHT22;10279;46.388;8.116;2023-10-13T07:18:36;13.50;94.90
20242;DHT22;10279;46.388;8.116;2023-10-13T07:21:04;13.50;95.00
20242;DHT22;10279;46.388;8.116;2023-10-13T07:23:37;13.60;95.10
20242;DHT22;10279;46.388;8.116;2023-10-13T07:26:06;13.70;95.10
20242;DHT22;10279;46.388;8.116;2023-10-13T07:28:35;13.80;94.80
20242;DHT22;10279;46.388;8.116;2023-10-13T07:31:14;13.90;94.60
20242;DHT22;10279;46.388;8.116;2023-10-13T07:33:47;14.00;94.60
20242;DHT22;10279;46.388;8.116;2023-10-13T07:36:14;14.10;94.60
20242;DHT22;10279;46.388;8.116;2023-10-13T07:39:05;14.10;94.60
20242;DHT22;10279;46.388;8.116;2023-10-13T07:41:50;14.20;94.40
20242;DHT22;10279;46.388;8.116;2023-10-13T07:44:33;14.20;94.10
20242;DHT22;10279;46.388;8.116;2023-10-13T07:47:02;14.30;93.90
20242;DHT22;10279;46.388;8.116;2023-10-13T07:49:36;14.40;93.60
20242;DHT22;10279;46.388;8.116;2023-10-13T07:52:07;14.50;93.40
20242;DHT22;10279;46.388;8.116;2023-10-13T07:54:48;14.50;93.40
20242;DHT22;10279;46.388;8.116;2023-10-13T07:57:34;14.60;93.20
20242;DHT22;10279;46.388;8.116;2023-10-13T08:00:01;14.70;93.10
20242;DHT22;10279;46.388;8.116;2023-10-13T08:02:39;14.90;93.30
20242;DHT22;10279;46.388;8.116;2023-10-13T08:05:16;14.90;93.00
20242;DHT22;10279;46.388;8.116;2023-10-13T08:08:06;15.00;93.50
20242;DHT22;10279;46.388;8.116;2023-10-13T08:10:41;15.10;93.10
20242;DHT22;10279;46.388;8.116;2023-10-13T08:13:12;15.10;92.90
20242;DHT22;10279;46.388;8.116;2023-10-13T08:15:41;15.10;92.70
20242;DHT22;10279;46.388;8.116;2023-10-13T08:18:15;15.20;92.80
20242;DHT22;10279;46.388;8.116;2023-10-13T08:20:51;15.20;92.70
20242;DHT22;10279;46.388;8.116;2023-10-13T08:23:21;15.30;93.00
20242;DHT22;10279;46.388;8.116;2023-10-13T08:26:10;15.30;93.30
20242;DHT22;10279;46.388;8.116;2023-10-13T08:28:58;15.40;93.10
20242;DHT22;10279;46.388;8.116;2023-10-13T08:31:48;15.50;93.00
20242;DHT22;10279;46.388;8.116;2023-10-13T08:34:34;15.60;93.20
20242;DHT22;10279;46.388;8.116;2023-10-13T08:37:13;15.70;93.10
20242;DHT22;10279;46.388;8.116;2023-10-13T08:39:51;15.80;92.80
20242;DHT22;10279;46.388;8.116;2023-10-13T08:42:51;15.90;92.90
20242;DHT22;10279;46.388;8.116;2023-10-13T08:45:33;16.10;93.20
20242;DHT22;10279;46.388;8.116;2023-10-13T08:48:06;16.20;92.90
20242;DHT22;10279;46.388;8.116;2023-10-13T08:50:48;16.20;93.10
20242;DHT22;10279;46.388;8.116;2023-10-13T08:53:20;16.30;92.60
20242;DHT22;10279;46.388;8.116;2023-10-13T08:56:00;16.40;92.70
20242;DHT22;10279;46.388;8.116;2023-10-13T08:59:03;16.50;92.20
20242;DHT22;10279;46.388;8.116;2023-10-13T09:01:35;16.60;92.00
20242;DHT22;10279;46.388;8.116;2023-10-13T09:04:17;16.70;91.90
20242;DHT22;10279;46.388;8.116;2023-10-13T09:12:16;16.90;91.70
20242;DHT22;10279;46.388;8.116;2023-10-13T09:14:55;17.00;91.00
20242;DHT22;10279;46.388;8.116;2023-10-13T09:17:27;17.20;90.80
20242;DHT22;10279;46.388;8.116;2023-10-13T09:20:07;17.30;90.40
20242;DHT22;10279;46.388;8.116;2023-10-13T09:22:55;17.40;90.40
20242;DHT22;10279;46.388;8.116;2023-10-13T09:28:02;17.70;90.30
20242;DHT22;10279;46.388;8.116;2023-10-13T09:30:44;17.80;89.80
20242;DHT22;10279;46.388;8.116;2023-10-13T09:33:11;18.00;88.50
20242;DHT22;10279;46.388;8.116;2023-10-13T09:35:47;18.10;87.30
20242;DHT22;10279;46.388;8.116;2023-10-13T09:38:17;18.20;87.80
20242;DHT22;10279;46.388;8.116;2023-10-13T09:40:45;18.30;87.20
20242;DHT22;10279;46.388;8.116;2023-10-13T09:43:24;18.50;84.60
20242;DHT22;10279;46.388;8.116;2023-10-13T09:45:59;18.60;82.60
20242;DHT22;10279;46.388;8.116;2023-10-13T09:48:37;18.80;81.20
20242;DHT22;10279;46.388;8.116;2023-10-13T09:51:13;18.90;81.50
20242;DHT22;10279;46.388;8.116;2023-10-13T09:54:04;19.10;81.10
20242;DHT22;10279;46.388;8.116;2023-10-13T09:57:00;19.30;81.60
20242;DHT22;10279;46.388;8.116;2023-10-13T09:59:46;19.40;82.30
20242;DHT22;10279;46.388;8.116;2023-10-13T10:02:19;19.60;82.10
20242;DHT22;10279;46.388;8.116;2023-10-13T10:04:57;19.80;80.60
20242;DHT22;10279;46.388;8.116;2023-10-13T10:07:56;20.00;79.60
20242;DHT22;10279;46.388;8.116;2023-10-13T10:10:43;20.20;78.40
20242;DHT22;10279;46.388;8.116;2023-10-13T10:13:21;20.40;77.80
20242;DHT22;10279;46.388;8.116;2023-10-13T10:16:03;20.60;77.40
20242;DHT22;10279;46.388;8.116;2023-10-13T10:18:35;20.80;77.70
20242;DHT22;10279;46.388;8.116;2023-10-13T10:21:05;20.90;76.90
20242;DHT22;10279;46.388;8.116;2023-10-13T10:23:37;20.90;80.20
20242;DHT22;10279;46.388;8.116;2023-10-13T10:26:14;21.00;76.80
20242;DHT22;10279;46.388;8.116;2023-10-13T10:28:43;21.10;75.50
20242;DHT22;10279;46.388;8.116;2023-10-13T10:31:12;21.20;79.50
20242;DHT22;10279;46.388;8.116;2023-10-13T10:33:40;21.40;76.30
20242;DHT22;10279;46.388;8.116;2023-10-13T10:36:08;21.50;76.40
20242;DHT22;10279;46.388;8.116;2023-10-13T10:38:55;21.70;76.00
20242;DHT22;10279;46.388;8.116;2023-10-13T10:41:32;21.90;74.40
20242;DHT22;10279;46.388;8.116;2023-10-13T10:44:12;22.10;75.30
20242;DHT22;10279;46.388;8.116;2023-10-13T10:47:14;22.20;74.80
20242;DHT22;10279;46.388;8.116;2023-10-13T10:50:05;22.40;73.60
20242;DHT22;10279;46.388;8.116;2023-10-13T10:52:46;22.50;75.10
20242;DHT22;10279;46.388;8.116;2023-10-13T10:55:20;22.50;71.20
20242;DHT22;10279;46.388;8.116;2023-10-13T10:58:00;22.70;68.40
20242;DHT22;10279;46.388;8.116;2023-10-13T11:00:34;22.80;68.90
20242;DHT22;10279;46.388;8.116;2023-10-13T11:03:17;23.00;72.20
20242;DHT22;10279;46.388;8.116;2023-10-13T11:05:46;23.00;65.90
20242;DHT22;10279;46.388;8.116;2023-10-13T11:08:24;23.00;65.20
20242;DHT22;10279;46.388;8.116;2023-10-13T11:11:04;23.10;65.60
20242;DHT22;10279;46.388;8.116;2023-10-13T11:14:00;23.20;66.30
20242;DHT22;10279;46.388;8.116;2023-10-13T11:16:51;23.20;64.90
20242;DHT22;10279;46.388;8.116;2023-10-13T11:19:22;23.20;69.40
20242;DHT22;10279;46.388;8.116;2023-10-13T11:22:21;23.30;66.40
20242;DHT22;10279;46.388;8.116;2023-10-13T11:25:06;23.30;66.30
20242;DHT22;10279;46.388;8.116;2023-10-13T11:27:40;23.40;63.40
20242;DHT22;10279;46.388;8.116;2023-10-13T11:30:18;23.50;59.70
20242;DHT22;10279;46.388;8.116;2023-10-13T11:32:59;23.50;60.60
20242;DHT22;10279;46.388;8.116;2023-10-13T11:35:27;23.60;63.70
20242;DHT22;10279;46.388;8.116;2023-10-13T11:38:16;23.60;66.50
20242;DHT22;10279;46.388;8.116;2023-10-13T11:41:03;23.70;66.20
20242;DHT22;10279;46.388;8.116;2023-10-13T11:43:37;23.70;63.50
20242;DHT22;10279;46.388;8.116;2023-10-13T11:46:13;23.60;63.20
20242;DHT22;10279;46.388;8.116;2023-10-13T11:48:46;23.60;62.90
20242;DHT22;10279;46.388;8.116;2023-10-13T11:51:15;23.70;63.50
20242;DHT22;10279;46.388;8.116;2023-10-13T11:53:51;23.70;63.70
20242;DHT22;10279;46.388;8.116;2023-10-13T11:56:20;23.70;63.40
20242;DHT22;10279;46.388;8.116;2023-10-13T11:58:51;23.60;63.70
20242;DHT22;10279;46.388;8.116;2023-10-13T12:01:19;23.70;66.30
20242;DHT22;10279;46.388;8.116;2023-10-13T12:04:09;23.90;63.80
20242;DHT22;10279;46.388;8.116;2023-10-13T12:06:55;23.90;64.70
20242;DHT22;10279;46.388;8.116;2023-10-13T12:09:42;23.80;64.40
20242;DHT22;10279;46.388;8.116;2023-10-13T12:12:25;23.90;63.00
20242;DHT22;10279;46.388;8.116;2023-10-13T12:14:55;24.00;63.40
20242;DHT22;10279;46.388;8.116;2023-10-13T12:17:25;24.30;64.50
20242;DHT22;10279;46.388;8.116;2023-10-13T12:19:55;24.40;65.80
20242;DHT22;10279;46.388;8.116;2023-10-13T12:22:24;24.50;64.70
20242;DHT22;10279;46.388;8.116;2023-10-13T12:25:12;24.60;65.90
20242;DHT22;10279;46.388;8.116;2023-10-13T12:27:53;24.60;66.70
20242;DHT22;10279;46.388;8.116;2023-10-13T12:30:25;24.60;66.30
20242;DHT22;10279;46.388;8.116;2023-10-13T12:33:11;24.60;66.80
20242;DHT22;10279;46.388;8.116;2023-10-13T12:35:42;24.80;69.00
20242;DHT22;10279;46.388;8.116;2023-10-13T12:38:26;25.00;66.40
20242;DHT22;10279;46.388;8.116;2023-10-13T12:41:07;25.20;69.30
20242;DHT22;10279;46.388;8.116;2023-10-13T12:44:03;25.50;67.00
20242;DHT22;10279;46.388;8.116;2023-10-13T12:46:50;25.50;69.40
20242;DHT22;10279;46.388;8.116;2023-10-13T12:49:37;25.20;68.10
20242;DHT22;10279;46.388;8.116;2023-10-13T12:52:10;25.40;65.70
20242;DHT22;10279;46.388;8.116;2023-10-13T12:54:47;25.70;68.70
20242;DHT22;10279;46.388;8.116;2023-10-13T12:57:22;26.10;67.70
20242;DHT22;10279;46.388;8.116;2023-10-13T12:59:52;26.20;67.80
20242;DHT22;10279;46.388;8.116;2023-10-13T13:02:24;25.60;66.90
20242;DHT22;10279;46.388;8.116;2023-10-13T13:04:54;25.50;68.30
20242;DHT22;10279;46.388;8.116;2023-10-13T13:07:24;25.80;69.40
20242;DHT22;10279;46.388;8.116;2023-10-13T13:09:57;26.30;68.10
20242;DHT22;10279;46.388;8.116;2023-10-13T13:12:27;26.60;69.10
20242;DHT22;10279;46.388;8.116;2023-10-13T13:14:57;26.80;67.60
20242;DHT22;10279;46.388;8.116;2023-10-13T13:17:24;26.90;66.60
20242;DHT22;10279;46.388;8.116;2023-10-13T13:19:52;26.80;68.10
20242;DHT22;10279;46.388;8.116;2023-10-13T13:22:20;26.90;68.10
20242;DHT22;10279;46.388;8.116;2023-10-13T13:24:48;27.00;66.70
20242;DHT22;10279;46.388;8.116;2023-10-13T13:27:16;27.10;66.90
20242;DHT22;10279;46.388;8.116;2023-10-13T13:29:51;27.20;72.40
20242;DHT22;10279;46.388;8.116;2023-10-13T13:32:22;27.30;68.70
20242;DHT22;10279;46.388;8.116;2023-10-13T13:34:53;27.30;68.40
20242;DHT22;10279;46.388;8.116;2023-10-13T13:37:31;27.40;69.00
20242;DHT22;10279;46.388;8.116;2023-10-13T13:39:59;27.20;68.10
20242;DHT22;10279;46.388;8.116;2023-10-13T13:42:43;27.20;70.60
20242;DHT22;10279;46.388;8.116;2023-10-13T13:45:18;27.00;68.40
20242;DHT22;10279;46.388;8.116;2023-10-13T13:47:49;27.20;67.90
20242;DHT22;10279;46.388;8.116;2023-10-13T13:50:25;27.30;69.70
20242;DHT22;10279;46.388;8.116;2023-10-13T13:52:56;27.30;70.10
20242;DHT22;10279;46.388;8.116;2023-10-13T13:55:25;27.00;68.70
20242;DHT22;10279;46.388;8.116;2023-10-13T13:57:57;26.50;71.50
20242;DHT22;10279;46.388;8.116;2023-10-13T14:00:24;26.50;70.20
20242;DHT22;10279;46.388;8.116;2023-10-13T14:03:06;26.60;70.50
20242;DHT22;10279;46.388;8.116;2023-10-13T14:05:43;26.30;70.10
20242;DHT22;10279;46.388;8.116;2023-10-13T14:08:10;25.70;71.70
20242;DHT22;10279;46.388;8.116;2023-10-13T14:10:42;25.90;72.10
20242;DHT22;10279;46.388;8.116;2023-10-13T14:13:30;26.10;72.30
20242;DHT22;10279;46.388;8.116;2023-10-13T14:16:17;26.00;72.00
20242;DHT22;10279;46.388;8.116;2023-10-13T14:18:46;26.20;72.00
20242;DHT22;10279;46.388;8.116;2023-10-13T14:21:15;26.40;73.10
20242;DHT22;10279;46.388;8.116;2023-10-13T14:23:52;26.30;71.70
20242;DHT22;10279;46.388;8.116;2023-10-13T14:26:22;26.10;72.00
20242;DHT22;10279;46.388;8.116;2023-10-13T14:28:53;26.00;73.60
20242;DHT22;10279;46.388;8.116;2023-10-13T14:31:33;26.00;74.20
20242;DHT22;10279;46.388;8.116;2023-10-13T14:34:01;26.00;72.70
20242;DHT22;10279;46.388;8.116;2023-10-13T14:36:28;26.00;71.90
20242;DHT22;10279;46.388;8.116;2023-10-13T14:38:56;26.00;72.30
20242;DHT22;10279;46.388;8.116;2023-10-13T14:41:24;26.20;72.00
20242;DHT22;10279;46.388;8.116;2023-10-13T14:43:51;26.40;71.40
20242;DHT22;10279;46.388;8.116;2023-10-13T14:46:20;26.50;71.60
20242;DHT22;10279;46.388;8.116;2023-10-13T14:48:53;26.50;70.20
20242;DHT22;10279;46.388;8.116;2023-10-13T14:51:21;26.60;72.10
20242;DHT22;10279;46.388;8.116;2023-10-13T14:53:49;26.30;71.80
20242;DHT22;10279;46.388;8.116;2023-10-13T14:56:20;26.10;72.50
20242;DHT22;10279;46.388;8.116;2023-10-13T14:58:53;26.00;72.90
20242;DHT22;10279;46.388;8.116;2023-10-13T15:01:23;25.80;73.00
20242;DHT22;10279;46.388;8.116;2023-10-13T15:03:54;25.60;74.30
20242;DHT22;10279;46.388;8.116;2023-10-13T15:06:27;25.50;74.10
20242;DHT22;10279;46.388;8.116;2023-10-13T15:08:59;25.50;73.80
20242;DHT22;10279;46.388;8.116;2023-10-13T15:11:27;25.40;74.00
20242;DHT22;10279;46.388;8.116;2023-10-13T15:14:14;25.50;75.20
20242;DHT22;10279;46.388;8.116;2023-10-13T15:16:42;25.60;74.70
20242;DHT22;10279;46.388;8.116;2023-10-13T15:19:10;25.80;74.40
20242;DHT22;10279;46.388;8.116;2023-10-13T15:21:39;25.60;75.20
20242;DHT22;10279;46.388;8.116;2023-10-13T15:24:16;25.40;74.80
20242;DHT22;10279;46.388;8.116;2023-10-13T15:26:53;25.30;75.10
20242;DHT22;10279;46.388;8.116;2023-10-13T15:29:29;25.10;76.50
20242;DHT22;10279;46.388;8.116;2023-10-13T15:32:05;25.10;76.50
20242;DHT22;10279;46.388;8.116;2023-10-13T15:34:53;25.00;77.20
20242;DHT22;10279;46.388;8.116;2023-10-13T15:37:21;25.00;77.10
20242;DHT22;10279;46.388;8.116;2023-10-13T15:39:53;24.90;77.50
20242;DHT22;10279;46.388;8.116;2023-10-13T15:42:20;24.60;77.60
20242;DHT22;10279;46.388;8.116;2023-10-13T15:44:48;24.20;78.60
20242;DHT22;10279;46.388;8.116;2023-10-13T15:47:17;24.00;79.40
20242;DHT22;10279;46.388;8.116;2023-10-13T15:49:47;23.50;80.30
20242;DHT22;10279;46.388;8.116;2023-10-13T15:52:15;23.10;81.10
20242;DHT22;10279;46.388;8.116;2023-10-13T15:54:43;22.80;82.10
20242;DHT22;10279;46.388;8.116;2023-10-13T15:57:11;22.70;82.80
20242;DHT22;10279;46.388;8.116;2023-10-13T15:59:43;22.50;83.00
20242;DHT22;10279;46.388;8.116;2023-10-13T16:02:13;22.40;83.80
20242;DHT22;10279;46.388;8.116;2023-10-13T16:04:44;22.30;83.70
20242;DHT22;10279;46.388;8.116;2023-10-13T16:07:12;22.10;84.70
20242;DHT22;10279;46.388;8.116;2023-10-13T16:09:39;22.00;84.70
20242;DHT22;10279;46.388;8.116;2023-10-13T16:12:07;21.90;84.90
20242;DHT22;10279;46.388;8.116;2023-10-13T16:14:38;21.90;85.40
20242;DHT22;10279;46.388;8.116;2023-10-13T16:17:05;21.80;85.40
20242;DHT22;10279;46.388;8.116;2023-10-13T16:19:35;21.70;85.60
20242;DHT22;10279;46.388;8.116;2023-10-13T16:22:03;21.60;86.20
20242;DHT22;10279;46.388;8.116;2023-10-13T16:24:32;21.50;86.00
20242;DHT22;10279;46.388;8.116;2023-10-13T16:27:00;21.40;86.60
20242;DHT22;10279;46.388;8.116;2023-10-13T16:29:28;21.30;86.80
20242;DHT22;10279;46.388;8.116;2023-10-13T16:31:58;21.30;87.00
20242;DHT22;10279;46.388;8.116;2023-10-13T16:34:26;21.20;87.30
20242;DHT22;10279;46.388;8.116;2023-10-13T16:36:53;21.10;87.50
20242;DHT22;10279;46.388;8.116;2023-10-13T16:39:22;21.10;87.80